Time;durP1;ratioP1;P1;durP2;ratioP2;P2;SDS_P1;SDS_P2;PMS_P1;PMS_P2;Temp;Humidity;BMP_temperature;BMP_pressure;BME280_temperature;BME280_humidity;BME280_pressure;Samples;Min_cycle;Max_cycle;Signal;HPM_P1;HPM_P2
2022/11/17 00:02:14;;;;;;;17.35;7.78;;;26.40;93.30;;;;;;1948309;72;21080;-76
2022/11/17 00:04:45;;;;;;;10.93;5.95;;;26.40;93.30;;;;;;1904637;74;21217;-76
2022/11/17 00:07:16;;;;;;;11.10;4.87;;;26.40;93.30;;;;;;1892437;75;21105;-75
2022/11/17 00:09:47;;;;;;;14.85;5.53;;;26.40;93.30;;;;;;1877247;75;21116;-77
2022/11/17 00:15:18;;;;;;;11.83;6.17;;;26.50;93.50;;;;;;1872767;76;21622;-76
2022/11/17 00:21:18;;;;;;;9.13;4.95;;;26.50;93.20;;;;;;1861627;75;21116;-77
2022/11/17 00:24:38;;;;;;;;;;;;;;;;;;;;;
2022/11/17 00:27:45;;;;;;;10.65;6.92;;;26.60;92.90;;;;;;1762709;81;21111;-75
2022/11/17 00:36:12;;;;;;;14.07;5.90;;;26.70;92.90;;;;;;1774974;78;21543;-75
2022/11/17 00:38:43;;;;;;;9.93;5.85;;;26.70;92.50;;;;;;1766790;80;21213;-76
2022/11/17 00:41:19;;;;;;;9.98;4.67;;;26.80;92.50;;;;;;1776196;79;21277;-75
2022/11/17 00:43:59;;;;;;;11.03;6.58;;;26.80;92.40;;;;;;1737152;81;21556;-76
2022/11/17 00:46:50;;;;;;;10.82;5.95;;;26.90;92.40;;;;;;1775972;80;21214;-75
2022/11/17 00:49:38;;;;;;;;;;;26.90;92.30;;;;;;1691142;82;21216;-77
2022/11/17 00:52:24;;;;;;;10.57;4.13;;;27.00;92.20;;;;;;1716270;82;20226;-77
2022/11/17 00:58:41;;;;;;;8.88;4.65;;;27.00;92.00;;;;;;1945864;73;22136;-74
2022/11/17 01:01:12;;;;;;;11.57;4.78;;;27.00;91.90;;;;;;1911560;73;21220;-75
2022/11/17 01:04:08;;;;;;;9.60;5.12;;;27.00;91.90;;;;;;1893901;75;21196;-76
2022/11/17 01:06:25;;;;;;;15.25;6.15;;;27.00;92.00;;;;;;1937390;72;21215;-74
2022/11/17 01:09:22;;;;;;;9.63;4.95;;;27.10;92.10;;;;;;1936018;72;21077;-75
2022/11/17 01:18:51;;;;;;;8.78;3.90;;;27.20;91.90;;;;;;1928203;72;21173;-77
2022/11/17 01:21:42;;;;;;;10.05;4.35;;;27.30;91.90;;;;;;1952862;73;21151;-77
2022/11/17 01:24:18;;;;;;;8.35;3.62;;;27.30;91.80;;;;;;1942274;72;21181;-77
2022/11/17 01:27:00;;;;;;;6.85;3.25;;;27.30;91.70;;;;;;1948975;72;21159;-74
2022/11/17 01:30:05;;;;;;;;;;;;;;;;;;;;;
2022/11/17 01:38:37;;;;;;;7.08;3.15;;;27.50;91.30;;;;;;1923106;72;21115;-77
2022/11/17 01:41:19;;;;;;;6.42;3.15;;;27.60;91.20;;;;;;1917885;72;21057;-75
2022/11/17 01:43:49;;;;;;;6.92;2.95;;;27.60;91.10;;;;;;1955192;71;21175;-73
2022/11/17 01:46:37;;;;;;;7.15;3.33;;;27.60;91.00;;;;;;1926725;71;21880;-76
2022/11/17 01:54:56;;;;;;;4.50;3.02;;;27.80;90.50;;;;;;1918168;72;21203;-74
2022/11/17 01:57:35;;;;;;;7.50;3.67;;;27.90;90.50;;;;;;1965425;72;21182;-74
2022/11/17 02:00:18;;;;;;;8.58;3.90;;;27.90;90.40;;;;;;1976873;71;21505;-75
2022/11/17 02:02:56;;;;;;;11.95;4.20;;;28.00;90.30;;;;;;1990483;71;21060;-74
2022/11/17 02:06:00;;;;;;;9.23;4.47;;;28.00;90.20;;;;;;1996787;71;21182;-74
2022/11/17 02:08:33;;;;;;;8.00;3.85;;;28.10;90.20;;;;;;1951677;71;21629;-75
2022/11/17 02:11:25;;;;;;;9.53;3.75;;;28.10;90.20;;;;;;1985256;71;21189;-75
2022/11/17 02:13:56;;;;;;;7.92;3.58;;;28.20;90.30;;;;;;1996325;72;21516;-74
2022/11/17 02:16:34;;;;;;;7.70;3.62;;;28.20;90.20;;;;;;1991053;71;21088;-75
2022/11/17 02:19:01;;;;;;;8.18;3.75;;;28.30;90.00;;;;;;1974753;71;21087;-74
2022/11/17 02:21:59;;;;;;;8.23;3.67;;;28.30;90.00;;;;;;1977448;71;21127;-74
2022/11/17 02:24:35;;;;;;;8.80;4.03;;;28.40;89.70;;;;;;1969082;71;21221;-73
2022/11/17 02:27:28;;;;;;;8.07;4.20;;;28.40;89.70;;;;;;1984899;72;21196;-76
2022/11/17 02:30:10;;;;;;;8.53;3.90;;;28.40;89.80;;;;;;1973531;71;21067;-73
2022/11/17 02:33:15;;;;;;;7.78;3.40;;;28.50;90.20;;;;;;1991919;71;22239;-74
2022/11/17 02:35:45;;;;;;;6.90;3.27;;;28.50;89.70;;;;;;1973017;71;21546;-73
2022/11/17 02:38:24;;;;;;;7.37;3.98;;;28.50;89.50;;;;;;1982277;72;21146;-74
2022/11/17 02:41:18;;;;;;;7.70;3.85;;;28.60;89.50;;;;;;1982954;71;21060;-75
2022/11/17 02:44:11;;;;;;;7.23;4.23;;;28.70;89.30;;;;;;1965704;72;21204;-75
2022/11/17 02:46:57;;;;;;;9.83;3.80;;;28.70;89.30;;;;;;1922255;73;21642;-73
2022/11/17 02:49:29;;;;;;;;;;;28.70;89.30;;;;;;1946964;73;21165;-76
2022/11/17 02:52:04;;;;;;;7.72;3.90;;;28.70;89.40;;;;;;1968999;73;20170;-74
2022/11/17 02:54:36;;;;;;;8.40;3.90;;;28.80;88.40;;;;;;1987723;71;21519;-73
2022/11/17 02:57:28;;;;;;;7.58;3.92;;;28.90;88.80;;;;;;1985872;71;21464;-74
2022/11/17 03:00:17;;;;;;;9.45;3.80;;;29.00;88.50;;;;;;1957928;72;21154;-72
2022/11/17 03:03:09;;;;;;;9.58;3.98;;;29.10;88.60;;;;;;1974894;72;21139;-73
2022/11/17 03:05:46;;;;;;;6.97;3.67;;;29.20;89.20;;;;;;1970621;72;21119;-74
2022/11/17 03:08:33;;;;;;;7.35;4.17;;;29.20;88.40;;;;;;1953563;72;21147;-74
2022/11/17 03:11:07;;;;;;;7.97;3.42;;;29.20;88.40;;;;;;1966539;72;21119;-73
2022/11/17 03:14:09;;;;;;;8.03;3.87;;;29.30;87.90;;;;;;1960154;72;21173;-74
2022/11/17 03:17:04;;;;;;;6.00;3.70;;;29.40;87.80;;;;;;1963448;72;22236;-74
2022/11/17 03:19:40;;;;;;;9.78;3.40;;;29.50;87.50;;;;;;1971582;72;21495;-74
2022/11/17 03:22:19;;;;;;;9.45;3.87;;;29.50;86.80;;;;;;1970698;72;21212;-74
2022/11/17 03:25:04;;;;;;;8.60;3.80;;;29.60;86.80;;;;;;1982847;72;21143;-74
2022/11/17 03:27:58;;;;;;;8.70;3.35;;;29.70;87.40;;;;;;1964811;72;21263;-75
2022/11/17 03:36:19;;;;;;;8.70;3.52;;;30.10;85.90;;;;;;1921127;73;21167;-77
2022/11/17 03:39:10;;;;;;;8.68;3.47;;;30.30;85.10;;;;;;1938344;73;21076;-74
2022/11/17 03:41:44;;;;;;;8.73;3.02;;;30.40;84.70;;;;;;1952619;73;21068;-74
2022/11/17 03:44:18;;;;;;;5.47;3.20;;;30.50;83.40;;;;;;1944571;73;21145;-75
2022/11/17 03:46:51;;;;;;;6.30;3.37;;;30.60;82.60;;;;;;1943474;73;21127;-75
2022/11/17 03:49:24;;;;;;;8.08;3.30;;;30.60;83.90;;;;;;1922745;74;21092;-75
2022/11/17 03:51:56;;;;;;;5.92;2.85;;;30.70;82.40;;;;;;1923224;74;21688;-74
2022/11/17 03:54:28;;;;;;;9.38;3.25;;;30.80;82.20;;;;;;1928802;73;21105;-73
2022/11/17 03:57:07;;;;;;;7.00;3.33;;;30.80;82.00;;;;;;1891670;76;21624;-74
2022/11/17 04:00:05;;;;;;;6.05;3.20;;;30.90;81.70;;;;;;1891652;76;21707;-74
2022/11/17 04:02:37;;;;;;;8.23;3.60;;;31.00;81.10;;;;;;1933675;73;21112;-74
2022/11/17 04:05:09;;;;;;;6.22;2.87;;;31.00;80.50;;;;;;1940059;73;21697;-74
2022/11/17 04:07:41;;;;;;;7.45;2.80;;;31.10;79.20;;;;;;1910159;73;21142;-73
2022/11/17 04:10:18;;;;;;;6.25;3.22;;;31.10;79.70;;;;;;1938084;73;21107;-74
2022/11/17 04:15:57;;;;;;;5.35;2.65;;;31.30;79.60;;;;;;1942952;73;21708;-76
2022/11/17 04:18:28;;;;;;;7.00;3.47;;;31.40;79.20;;;;;;1908687;74;21497;-75
2022/11/17 04:20:59;;;;;;;6.05;2.60;;;31.50;77.40;;;;;;1924668;73;21240;-75
2022/11/17 04:23:30;;;;;;;6.50;2.77;;;31.60;77.40;;;;;;1926776;73;21193;-75
2022/11/17 04:28:52;;;;;;;5.90;2.85;;;31.80;77.80;;;;;;1925021;74;21588;-75
2022/11/17 04:31:31;;;;;;;6.92;3.50;;;32.00;76.20;;;;;;1935688;73;21142;-75
2022/11/17 04:34:04;;;;;;;6.65;2.47;;;32.00;75.70;;;;;;1926427;73;21559;-76
2022/11/17 04:36:46;;;;;;;6.17;3.27;;;32.10;77.20;;;;;;1927276;72;21147;-75
2022/11/17 04:39:17;;;;;;;4.28;2.80;;;32.20;76.50;;;;;;1938587;73;21071;-74
2022/11/17 04:41:56;;;;;;;6.12;2.62;;;32.20;75.80;;;;;;1950299;73;21134;-74
2022/11/17 04:44:31;;;;;;;4.67;2.77;;;32.30;76.60;;;;;;1931258;73;21194;-75
2022/11/17 04:47:03;;;;;;;4.58;2.42;;;32.40;75.90;;;;;;1938959;71;21235;-76
2022/11/17 04:49:34;;;;;;;5.53;2.70;;;32.50;74.80;;;;;;1922028;74;21235;-73
2022/11/17 04:52:05;;;;;;;6.10;2.92;;;32.60;75.10;;;;;;1934793;74;21672;-75
2022/11/17 04:57:31;;;;;;;6.50;2.85;;;32.70;74.40;;;;;;1845429;77;21849;-75
2022/11/17 05:00:02;;;;;;;6.58;3.00;;;32.80;73.70;;;;;;1910460;74;21271;-75
2022/11/17 05:02:33;;;;;;;10.80;3.20;;;32.70;73.60;;;;;;1935008;74;21130;-75
2022/11/17 05:05:04;;;;;;;6.60;2.98;;;32.60;73.70;;;;;;1934481;73;21213;-76
2022/11/17 05:07:46;;;;;;;5.85;2.40;;;32.40;74.00;;;;;;1934281;74;21102;-76
2022/11/17 05:10:13;;;;;;;4.60;2.45;;;32.40;73.20;;;;;;1929602;74;21142;-75
2022/11/17 05:18:06;;;;;;;6.72;2.65;;;32.70;75.30;;;;;;1934180;74;21143;-76
2022/11/17 05:20:37;;;;;;;6.92;2.60;;;32.80;73.70;;;;;;1934977;74;21154;-75
2022/11/17 05:26:04;;;;;;;4.72;2.65;;;33.10;73.40;;;;;;1935615;74;21122;-75
2022/11/17 05:28:35;;;;;;;6.00;2.62;;;33.20;71.40;;;;;;1930521;73;21135;-75
2022/11/17 05:31:08;;;;;;;8.43;2.98;;;33.30;70.70;;;;;;1933550;74;21376;-75
2022/11/17 05:33:42;;;;;;;5.75;2.98;;;33.30;71.00;;;;;;1934311;73;21147;-75
2022/11/17 05:36:14;;;;;;;5.55;2.30;;;33.30;70.90;;;;;;1909561;74;21172;-75
2022/11/17 05:38:47;;;;;;;4.53;2.50;;;33.40;71.10;;;;;;1931709;72;21077;-75
2022/11/17 05:41:18;;;;;;;4.58;2.90;;;33.40;69.50;;;;;;1913054;75;21101;-75
2022/11/17 05:43:50;;;;;;;5.42;2.70;;;33.40;69.00;;;;;;1907840;74;21619;-76
2022/11/17 05:46:21;;;;;;;9.30;4.65;;;33.40;68.80;;;;;;1886454;75;21519;-74
2022/11/17 05:48:53;;;;;;;6.75;3.17;;;33.40;69.70;;;;;;1899422;75;21877;-75
2022/11/17 05:51:25;;;;;;;5.58;2.92;;;33.20;70.30;;;;;;1903780;75;21085;-75
2022/11/17 05:53:57;;;;;;;5.72;3.10;;;33.20;70.40;;;;;;1905080;74;21769;-75
2022/11/17 05:56:33;;;;;;;5.97;3.17;;;33.20;70.50;;;;;;1902231;75;21132;-75
2022/11/17 05:59:06;;;;;;;6.28;2.92;;;33.20;72.40;;;;;;1899868;75;21740;-75
2022/11/17 06:01:40;;;;;;;9.75;2.42;;;33.20;70.70;;;;;;1882305;75;21158;-75
2022/11/17 06:04:13;;;;;;;4.60;2.87;;;33.30;70.00;;;;;;1903741;74;21112;-75
2022/11/17 06:06:44;;;;;;;5.97;2.83;;;33.20;69.90;;;;;;1900687;74;21152;-75
2022/11/17 06:09:16;;;;;;;5.45;2.75;;;33.10;70.50;;;;;;1875189;75;21113;-75
2022/11/17 06:11:47;;;;;;;4.72;2.60;;;33.10;69.90;;;;;;1879109;76;21188;-74
2022/11/17 06:14:18;;;;;;;4.53;2.62;;;33.10;69.80;;;;;;1868118;76;21210;-75
2022/11/17 06:16:52;;;;;;;5.45;2.65;;;33.10;69.70;;;;;;1899724;75;21160;-75
2022/11/17 06:19:25;;;;;;;6.00;3.22;;;33.10;70.10;;;;;;1915567;75;21160;-75
2022/11/17 06:21:57;;;;;;;3.65;2.40;;;33.10;70.20;;;;;;1915679;75;21225;-75
2022/11/17 06:24:29;;;;;;;5.75;2.45;;;33.20;69.60;;;;;;1899726;75;21146;-75
2022/11/17 06:27:01;;;;;;;6.87;2.58;;;33.20;69.30;;;;;;1887675;75;21227;-75
2022/11/17 06:29:32;;;;;;;7.67;2.62;;;33.30;68.80;;;;;;1873478;74;21162;-75
2022/11/17 06:32:05;;;;;;;5.75;2.55;;;33.20;68.70;;;;;;1865579;77;21210;-75
2022/11/17 06:34:37;;;;;;;5.97;2.20;;;33.10;67.40;;;;;;1866474;76;21639;-75
2022/11/17 06:37:26;;;;;;;4.22;1.87;;;33.00;68.20;;;;;;1864950;76;21244;-75
2022/11/17 06:39:59;;;;;;;3.83;2.05;;;32.80;67.50;;;;;;1890673;74;21176;-76
2022/11/17 06:45:20;;;;;;;4.05;1.98;;;32.60;70.20;;;;;;1925865;74;21185;-74
2022/11/17 06:47:54;;;;;;;3.42;1.92;;;32.50;68.40;;;;;;1957286;73;21147;-75
2022/11/17 06:50:26;;;;;;;4.10;2.05;;;32.50;69.00;;;;;;1924803;73;22279;-75
2022/11/17 06:53:01;;;;;;;6.05;2.52;;;32.60;69.00;;;;;;1961996;73;21083;-75
2022/11/17 06:55:33;;;;;;;5.30;2.47;;;32.80;68.60;;;;;;1913816;73;21564;-75
2022/11/17 06:58:06;;;;;;;8.10;2.65;;;32.90;69.40;;;;;;1938184;73;21075;-75
2022/11/17 07:00:37;;;;;;;5.20;2.45;;;33.00;69.60;;;;;;1955693;73;21103;-75
2022/11/17 07:03:10;;;;;;;7.25;2.62;;;33.10;70.30;;;;;;1930408;74;21180;-75
2022/11/17 07:05:45;;;;;;;4.67;2.75;;;33.20;69.20;;;;;;1931287;73;21079;-74
2022/11/17 07:08:17;;;;;;;4.03;2.40;;;33.30;68.80;;;;;;1944513;73;21095;-74
2022/11/17 07:10:53;;;;;;;4.70;2.35;;;33.30;68.80;;;;;;1892666;74;21146;-74
2022/11/17 07:13:23;;;;;;;5.65;2.47;;;33.20;69.40;;;;;;1924402;73;21143;-75
2022/11/17 07:15:55;;;;;;;5.83;2.40;;;33.10;68.10;;;;;;1926264;73;21071;-75
2022/11/17 07:18:25;;;;;;;5.25;2.22;;;33.00;69.40;;;;;;1943352;73;21134;-75
2022/11/17 07:21:02;;;;;;;4.65;2.20;;;32.90;68.50;;;;;;1944655;73;21118;-73
2022/11/17 07:23:33;;;;;;;3.90;2.05;;;32.90;68.20;;;;;;1936626;73;21175;-75
2022/11/17 07:26:11;;;;;;;6.08;1.82;;;32.90;68.10;;;;;;1948329;73;21563;-75
2022/11/17 07:28:40;;;;;;;4.47;2.35;;;32.90;68.40;;;;;;1962926;73;21200;-75
2022/11/17 07:31:11;;;;;;;3.62;1.98;;;32.90;68.80;;;;;;1936430;73;21485;-75
2022/11/17 07:33:43;;;;;;;4.25;2.22;;;32.90;68.00;;;;;;1966025;73;21151;-75
2022/11/17 07:36:15;;;;;;;2.62;1.75;;;33.00;68.30;;;;;;1938465;73;21650;-75
2022/11/17 07:38:48;;;;;;;5.53;2.22;;;33.00;68.10;;;;;;1925710;73;21147;-76
2022/11/17 07:41:19;;;;;;;3.87;2.00;;;33.10;67.50;;;;;;1925017;73;21076;-76
2022/11/17 07:43:50;;;;;;;5.40;2.22;;;33.10;67.60;;;;;;1946648;73;21162;-74
2022/11/17 07:46:21;;;;;;;4.00;2.10;;;33.10;67.10;;;;;;1926972;73;21243;-75
2022/11/17 07:48:55;;;;;;;6.60;3.00;;;33.20;68.10;;;;;;1929217;73;21178;-74
2022/11/17 07:51:25;;;;;;;7.55;3.20;;;33.20;68.00;;;;;;1930679;73;21627;-75
2022/11/17 07:53:56;;;;;;;5.10;2.87;;;33.20;66.90;;;;;;1933588;73;21049;-75
2022/11/17 07:56:45;;;;;;;6.35;2.58;;;33.20;67.80;;;;;;1957063;73;21705;-74
2022/11/17 07:59:16;;;;;;;4.58;2.30;;;33.20;67.50;;;;;;1947018;73;21672;-75
2022/11/17 08:01:49;;;;;;;5.15;2.77;;;33.10;66.90;;;;;;1942348;73;21172;-75
2022/11/17 08:04:20;;;;;;;6.00;2.90;;;33.00;66.90;;;;;;1946230;73;21226;-75
2022/11/17 08:06:51;;;;;;;5.03;2.50;;;32.90;67.40;;;;;;1944473;73;21125;-76
2022/11/17 08:09:23;;;;;;;4.12;2.25;;;32.90;67.80;;;;;;1908316;74;21056;-75
2022/11/17 08:11:54;;;;;;;3.98;2.10;;;32.90;67.70;;;;;;1924271;74;21135;-76
2022/11/17 08:14:26;;;;;;;4.60;2.08;;;32.90;66.80;;;;;;1925093;73;21168;-75
2022/11/17 08:16:57;;;;;;;4.58;1.57;;;32.90;67.00;;;;;;1933594;73;21530;-75
2022/11/17 08:19:28;;;;;;;4.37;1.75;;;32.90;66.90;;;;;;1930788;73;21521;-75
2022/11/17 08:22:02;;;;;;;3.30;1.90;;;32.90;66.70;;;;;;1926585;73;21147;-74
2022/11/17 08:24:33;;;;;;;5.30;1.82;;;32.90;66.50;;;;;;1924037;74;21087;-76
2022/11/17 08:27:08;;;;;;;6.03;2.30;;;32.90;67.10;;;;;;1927695;73;21199;-75
2022/11/17 08:29:41;;;;;;;4.35;2.42;;;32.90;67.10;;;;;;1927936;73;21623;-75
2022/11/17 08:32:14;;;;;;;5.78;2.12;;;33.00;67.70;;;;;;1931911;73;21188;-74
2022/11/17 08:34:53;;;;;;;5.58;2.65;;;32.90;68.40;;;;;;1923668;74;21639;-74
2022/11/17 08:37:25;;;;;;;5.22;2.37;;;33.00;68.50;;;;;;1948529;72;21158;-75
2022/11/17 08:40:06;;;;;;;4.58;2.05;;;33.00;69.00;;;;;;1942640;73;21171;-74
2022/11/17 08:42:38;;;;;;;3.83;1.70;;;33.00;66.80;;;;;;1874933;74;21188;-76
2022/11/17 08:45:10;;;;;;;3.33;1.55;;;33.00;67.20;;;;;;1919676;73;21212;-76
2022/11/17 08:47:42;;;;;;;3.95;1.67;;;33.00;66.60;;;;;;1878381;74;21200;-76
2022/11/17 08:50:19;;;;;;;5.25;2.08;;;33.00;66.60;;;;;;1884067;74;21231;-75
2022/11/17 08:53:22;;;;;;;4.05;1.90;;;33.00;66.60;;;;;;1926302;74;21174;-76
2022/11/17 08:55:51;;;;;;;3.70;2.10;;;33.00;66.60;;;;;;1893270;73;21114;-76
2022/11/17 08:58:27;;;;;;;4.70;1.72;;;32.90;66.50;;;;;;1925163;74;21115;-76
2022/11/17 09:00:59;;;;;;;3.83;1.82;;;32.90;66.70;;;;;;1897662;74;21130;-75
2022/11/17 09:03:32;;;;;;;5.50;1.85;;;32.90;66.20;;;;;;1924829;74;21183;-76
2022/11/17 09:06:05;;;;;;;4.85;1.77;;;32.90;66.80;;;;;;1889918;76;21623;-76
2022/11/17 09:08:36;;;;;;;3.83;1.80;;;32.90;66.90;;;;;;1860553;76;21696;-78
2022/11/17 09:11:10;;;;;;;4.33;2.08;;;32.90;67.20;;;;;;1958161;73;21751;-75
2022/11/17 09:13:44;;;;;;;4.83;1.90;;;32.90;67.30;;;;;;1966217;73;21224;-76
2022/11/17 09:16:17;;;;;;;4.92;1.72;;;33.00;66.20;;;;;;1926496;73;21139;-75
2022/11/17 09:18:51;;;;;;;3.58;1.60;;;33.00;67.20;;;;;;1923712;74;21236;-74
2022/11/17 09:21:23;;;;;;;4.83;1.92;;;33.00;67.10;;;;;;1888830;76;21056;-74
2022/11/17 09:23:55;;;;;;;3.83;1.80;;;32.90;67.30;;;;;;1923042;74;21158;-76
2022/11/17 09:26:34;;;;;;;5.65;2.27;;;32.90;67.60;;;;;;1918648;74;21254;-77
2022/11/17 09:32:26;;;;;;;7.45;2.22;;;32.80;67.60;;;;;;1929493;73;21406;-75
2022/11/17 09:34:55;;;;;;;5.12;2.00;;;32.80;68.00;;;;;;1925851;73;21178;-73
2022/11/17 09:37:27;;;;;;;4.62;2.45;;;32.70;68.40;;;;;;1924934;73;21150;-74
2022/11/17 09:39:58;;;;;;;5.10;2.35;;;32.70;68.60;;;;;;1884181;76;21203;-76
2022/11/17 09:42:29;;;;;;;4.58;2.00;;;32.60;68.30;;;;;;1877197;76;21125;-75
2022/11/17 09:45:11;;;;;;;6.33;1.92;;;32.60;68.30;;;;;;1830939;77;21098;-75
2022/11/17 09:48:05;;;;;;;10.70;2.40;;;32.60;68.70;;;;;;1875679;76;21649;-76
2022/11/17 09:50:39;;;;;;;5.30;2.10;;;32.60;69.80;;;;;;1868007;75;21124;-76
2022/11/17 09:53:21;;;;;;;4.80;2.30;;;32.50;69.00;;;;;;1901709;73;21528;-75
2022/11/17 09:55:57;;;;;;;4.00;1.90;;;32.40;68.80;;;;;;1912921;75;21130;-75
2022/11/17 09:58:52;;;;;;;3.65;1.92;;;32.40;68.90;;;;;;1910589;74;21255;-76
2022/11/17 10:01:25;;;;;;;6.63;2.07;;;32.40;69.20;;;;;;1902626;74;21199;-75
2022/11/17 10:04:02;;;;;;;6.97;2.25;;;32.40;69.40;;;;;;1877382;76;21389;-76
2022/11/17 10:06:31;;;;;;;8.75;1.92;;;32.30;69.30;;;;;;1840841;77;21163;-75
2022/11/17 10:09:21;;;;;;;4.67;1.95;;;32.30;69.20;;;;;;1870868;75;21092;-77
2022/11/17 10:11:56;;;;;;;4.97;2.50;;;32.20;69.30;;;;;;1877409;75;21240;-76
2022/11/17 10:14:29;;;;;;;4.72;2.12;;;32.20;69.50;;;;;;1880677;75;21618;-76
2022/11/17 10:17:03;;;;;;;5.78;2.25;;;32.20;69.60;;;;;;1873993;75;21084;-76
2022/11/17 10:22:34;;;;;;;5.37;2.30;;;32.10;70.00;;;;;;1916756;74;21713;-77
2022/11/17 10:25:07;;;;;;;5.53;2.33;;;32.10;70.20;;;;;;1927941;74;21140;-76
2022/11/17 10:27:40;;;;;;;6.92;3.00;;;32.00;70.40;;;;;;1925205;74;21172;-76
2022/11/17 10:30:25;;;;;;;6.72;3.17;;;32.00;70.30;;;;;;1895788;74;22008;-76
2022/11/17 10:32:58;;;;;;;6.70;2.08;;;31.90;70.20;;;;;;1896211;74;21209;-75
2022/11/17 10:35:32;;;;;;;4.20;2.37;;;31.80;70.20;;;;;;1897058;74;21162;-76
2022/11/17 10:38:14;;;;;;;4.85;2.58;;;31.80;70.50;;;;;;1924909;74;21187;-76
2022/11/17 10:40:48;;;;;;;6.35;2.60;;;31.80;70.70;;;;;;1925305;74;21152;-76
2022/11/17 10:43:30;;;;;;;6.47;2.87;;;31.80;70.80;;;;;;1924887;74;21596;-75
2022/11/17 10:46:13;;;;;;;9.53;4.50;;;31.80;70.20;;;;;;1915436;74;21137;-76
2022/11/17 10:48:59;;;;;;;6.62;3.12;;;31.70;71.30;;;;;;1902902;75;21588;-75
2022/11/17 10:51:32;;;;;;;5.20;2.77;;;31.70;71.40;;;;;;1896788;75;21209;-76
2022/11/17 10:54:17;;;;;;;5.33;2.90;;;31.70;71.50;;;;;;1885033;74;21318;-76
2022/11/17 10:56:56;;;;;;;7.22;2.98;;;31.60;71.50;;;;;;1915701;74;21100;-76
2022/11/17 10:59:45;;;;;;;7.97;3.05;;;31.60;71.60;;;;;;1927422;73;21442;-76
2022/11/17 11:02:37;;;;;;;8.78;2.80;;;31.60;71.50;;;;;;1906069;74;21087;-76
2022/11/17 11:05:17;;;;;;;4.85;2.83;;;31.60;71.60;;;;;;1890834;75;21107;-78
2022/11/17 11:07:49;;;;;;;5.95;3.30;;;31.60;71.90;;;;;;1898509;74;21173;-76
2022/11/17 11:10:25;;;;;;;6.92;3.52;;;31.60;71.90;;;;;;1930309;74;21579;-77
2022/11/17 11:13:15;;;;;;;7.10;3.15;;;31.60;71.80;;;;;;1872153;75;21165;-76
2022/11/17 11:15:54;;;;;;;7.95;3.90;;;31.60;71.80;;;;;;1862897;77;21758;-76
2022/11/17 11:18:26;;;;;;;8.83;3.45;;;31.60;73.00;;;;;;1896303;74;21158;-76
2022/11/17 11:21:06;;;;;;;13.38;6.55;;;31.50;71.90;;;;;;1897781;74;21145;-77
2022/11/17 11:23:45;;;;;;;10.90;6.47;;;31.50;72.00;;;;;;1918742;74;21076;-77
2022/11/17 11:26:31;;;;;;;18.87;11.05;;;31.50;72.10;;;;;;1876224;74;21155;-77
2022/11/17 11:29:24;;;;;;;15.58;8.93;;;31.50;72.00;;;;;;1916424;74;21672;-78
2022/11/17 11:32:19;;;;;;;13.65;7.33;;;31.50;72.30;;;;;;1880864;74;21241;-76
2022/11/17 11:34:52;;;;;;;;;;;31.40;72.40;;;;;;1873057;74;21137;-78
2022/11/17 11:37:24;;;;;;;8.73;4.55;;;31.40;72.80;;;;;;1884302;74;20197;-76
2022/11/17 11:40:20;;;;;;;10.75;4.85;;;31.40;72.50;;;;;;1885219;74;21115;-77
2022/11/17 11:42:56;;;;;;;9.15;4.72;;;31.40;72.60;;;;;;1855059;76;21227;-76
2022/11/17 11:45:48;;;;;;;9.60;4.35;;;31.40;72.80;;;;;;1877610;75;21607;-77
2022/11/17 11:48:24;;;;;;;7.72;4.62;;;31.40;72.90;;;;;;1852755;77;21268;-77
2022/11/17 11:51:02;;;;;;;9.88;5.22;;;31.40;73.10;;;;;;1885643;74;21142;-77
2022/11/17 11:53:44;;;;;;;10.72;5.47;;;31.30;73.10;;;;;;1824100;77;21270;-77
2022/11/17 11:56:24;;;;;;;10.85;5.40;;;31.20;73.30;;;;;;1853082;77;21092;-78
2022/11/17 11:59:06;;;;;;;9.65;5.53;;;31.20;73.40;;;;;;1887146;76;21185;-76
2022/11/17 12:01:54;;;;;;;12.40;5.87;;;31.20;73.70;;;;;;1882489;76;21202;-76
2022/11/17 12:04:28;;;;;;;11.28;5.95;;;31.20;73.90;;;;;;1878234;74;21122;-77
2022/11/17 12:07:17;;;;;;;;;;;;;;;;;;;;;
2022/11/17 12:09:48;;;;;;;12.05;5.42;;;31.20;74.40;;;;;;1890278;74;21118;-77
2022/11/17 12:12:39;;;;;;;15.05;6.35;;;31.20;74.40;;;;;;1873459;76;21540;-76
2022/11/17 12:15:14;;;;;;;14.87;8.03;;;31.10;74.60;;;;;;1910737;74;21067;-77
2022/11/17 12:18:04;;;;;;;18.65;9.38;;;31.10;74.60;;;;;;1823548;78;21197;-77
2022/11/17 12:20:41;;;;;;;18.10;9.98;;;31.20;74.60;;;;;;1864231;76;21606;-77
2022/11/17 12:23:15;;;;;;;;;;;31.10;74.70;;;;;;1867770;76;21141;-77
2022/11/17 12:25:49;;;;;;;30.97;16.15;;;31.10;74.70;;;;;;1869179;76;20667;-77
2022/11/17 12:28:39;;;;;;;27.17;16.97;;;31.10;74.80;;;;;;1899560;74;21254;-76
2022/11/17 12:31:32;;;;;;;23.80;15.75;;;31.10;75.10;;;;;;1893686;74;21154;-76
2022/11/17 12:34:08;;;;;;;22.30;14.40;;;31.00;75.30;;;;;;1862618;76;21182;-76
2022/11/17 12:36:40;;;;;;;21.52;12.20;;;31.10;75.70;;;;;;1891654;75;21614;-77
2022/11/17 12:39:13;;;;;;;17.12;11.63;;;31.00;76.00;;;;;;1897191;74;21654;-78
2022/11/17 12:41:53;;;;;;;20.72;11.60;;;31.00;76.30;;;;;;1860132;77;21157;-77
2022/11/17 12:44:43;;;;;;;21.33;11.28;;;31.00;77.10;;;;;;1894287;74;21264;-77
2022/11/17 12:47:21;;;;;;;22.98;11.20;;;30.90;76.90;;;;;;1898537;74;21051;-78
2022/11/17 12:50:21;;;;;;;17.05;10.58;;;30.90;76.80;;;;;;1865266;77;21206;-83
2022/11/17 12:53:16;;;;;;;21.35;10.48;;;30.90;77.80;;;;;;1875256;76;21079;-83
2022/11/17 12:56:04;;;;;;;22.42;11.53;;;31.00;77.10;;;;;;1893840;74;21142;-85
2022/11/17 12:59:01;;;;;;;20.30;10.80;;;31.00;77.10;;;;;;1889727;75;21158;-84
2022/11/17 13:01:58;;;;;;;20.82;10.45;;;30.90;77.10;;;;;;1892758;74;21889;-85
2022/11/17 13:04:46;;;;;;;17.45;8.70;;;30.90;76.80;;;;;;1911562;74;21173;-84
2022/11/17 13:07:21;;;;;;;15.10;7.92;;;30.90;76.30;;;;;;1864082;77;21628;-84
2022/11/17 13:09:56;;;;;;;16.25;8.63;;;31.00;76.50;;;;;;1895461;74;21203;-84
2022/11/17 13:12:32;;;;;;;14.05;7.20;;;30.90;76.30;;;;;;1895684;74;21155;-83
2022/11/17 13:15:05;;;;;;;16.15;8.70;;;30.90;76.40;;;;;;1896720;74;21724;-85
2022/11/17 13:17:41;;;;;;;19.30;8.10;;;30.90;76.50;;;;;;1896724;74;21569;-84
2022/11/17 13:20:27;;;;;;;13.35;7.65;;;30.90;76.70;;;;;;1896234;74;21115;-84
2022/11/17 13:23:03;;;;;;;14.10;7.42;;;30.90;77.00;;;;;;1885395;75;21119;-84
2022/11/17 13:25:34;;;;;;;16.27;8.53;;;30.90;77.20;;;;;;1880559;74;21158;-85
2022/11/17 13:31:40;;;;;;;13.65;7.67;;;30.80;78.00;;;;;;1779152;78;21169;-85
2022/11/17 13:34:44;;;;;;;19.82;9.48;;;30.90;78.10;;;;;;1863771;75;21219;-85
2022/11/17 13:37:35;;;;;;;19.02;8.75;;;30.80;78.70;;;;;;1830788;77;21190;-84
2022/11/17 13:43:44;;;;;;;14.47;8.20;;;30.70;78.90;;;;;;1639754;86;21634;-84
2022/11/17 13:46:15;;;;;;;14.25;8.15;;;30.70;79.10;;;;;;1663495;84;21209;-85
2022/11/17 13:48:49;;;;;;;13.65;8.68;;;30.70;79.50;;;;;;1824094;76;21172;-83
2022/11/17 13:51:37;;;;;;;15.10;8.30;;;30.70;79.50;;;;;;1880448;75;21683;-84
2022/11/17 13:54:17;;;;;;;20.27;9.40;;;30.70;79.60;;;;;;1878930;75;21103;-84
2022/11/17 13:59:30;;;;;;;12.28;7.92;;;30.60;80.20;;;;;;1825136;75;21119;-84
2022/11/17 14:02:24;;;;;;;14.20;9.03;;;30.60;80.00;;;;;;1879594;75;21139;-85
2022/11/17 14:05:21;;;;;;;17.10;8.05;;;30.60;80.30;;;;;;1880188;75;21107;-83
2022/11/17 14:07:55;;;;;;;18.00;8.48;;;30.60;80.20;;;;;;1874616;75;21172;-83
2022/11/17 14:10:30;;;;;;;12.55;8.38;;;30.60;80.60;;;;;;1883130;75;21123;-84
2022/11/17 14:13:09;;;;;;;12.70;7.55;;;30.60;80.60;;;;;;1882981;75;21117;-84
2022/11/17 14:15:43;;;;;;;17.40;8.58;;;30.50;80.40;;;;;;1881813;75;21611;-83
2022/11/17 14:18:42;;;;;;;20.37;9.20;;;30.50;80.50;;;;;;1892440;75;21276;-85
2022/11/17 14:21:30;;;;;;;;;;;;;;;;;;;;;
2022/11/17 14:24:14;;;;;;;20.95;10.20;;;30.50;81.50;;;;;;1864412;74;21179;-84
2022/11/17 14:27:04;;;;;;;24.87;10.08;;;30.40;81.80;;;;;;1885003;75;21123;-84
2022/11/17 14:29:49;;;;;;;15.45;10.05;;;30.40;82.20;;;;;;1884877;75;21109;-85
2022/11/17 14:32:20;;;;;;;22.32;12.33;;;30.30;82.40;;;;;;1924344;72;21159;-84
2022/11/17 14:34:54;;;;;;;18.73;11.25;;;30.20;83.30;;;;;;1926994;74;21113;-84
2022/11/17 14:37:45;;;;;;;24.55;11.63;;;30.10;84.20;;;;;;1884187;74;21057;-84
2022/11/17 14:40:31;;;;;;;25.35;11.93;;;30.00;84.50;;;;;;1884151;73;21153;-84
2022/11/17 14:43:35;;;;;;;23.98;11.73;;;30.00;84.80;;;;;;1891650;74;21254;-84
2022/11/17 14:46:48;;;;;;;18.50;10.38;;;29.90;85.00;;;;;;1857569;75;21170;-85
2022/11/17 14:49:41;;;;;;;23.57;11.33;;;29.90;85.00;;;;;;1707661;80;21123;-84
2022/11/17 14:52:27;;;;;;;24.43;11.12;;;29.90;85.20;;;;;;1799857;75;21681;-83
2022/11/17 14:55:10;;;;;;;22.77;11.90;;;29.90;85.80;;;;;;1863504;76;21127;-84
2022/11/17 14:57:45;;;;;;;20.08;10.93;;;29.90;85.80;;;;;;1855118;76;21070;-84
2022/11/17 15:00:37;;;;;;;23.32;11.45;;;29.90;86.10;;;;;;1854272;76;21256;-84
2022/11/17 15:03:45;;;;;;;24.87;11.85;;;29.90;86.00;;;;;;1892693;74;21235;-84